sensor_id;sensor_type;location;lat;lon;timestamp;pressure;altitude;pressure_sealevel;temperature;humidity
25855;BME280;13680;49.936;11.344;2023-01-26T00:00:46;97253.03;;;1.19;74.12
25855;BME280;13680;49.936;11.344;2023-01-26T00:03:12;97236.13;;;1.20;74.20
25855;BME280;13680;49.936;11.344;2023-01-26T00:05:37;97232.91;;;1.18;73.96
25855;BME280;13680;49.936;11.344;2023-01-26T00:08:03;97235.22;;;1.26;74.67
25855;BME280;13680;49.936;11.344;2023-01-26T00:10:29;97229.31;;;1.12;73.97
25855;BME280;13680;49.936;11.344;2023-01-26T00:12:54;97231.84;;;1.19;74.70
25855;BME280;13680;49.936;11.344;2023-01-26T00:15:19;97224.31;;;1.34;74.11
25855;BME280;13680;49.936;11.344;2023-01-26T00:17:44;97222.81;;;1.38;73.68
25855;BME280;13680;49.936;11.344;2023-01-26T00:20:10;97219.47;;;1.43;73.87
25855;BME280;13680;49.936;11.344;2023-01-26T00:22:35;97220.03;;;1.21;73.64
25855;BME280;13680;49.936;11.344;2023-01-26T00:25:01;97207.69;;;1.27;73.57
25855;BME280;13680;49.936;11.344;2023-01-26T00:27:26;97213.78;;;1.16;73.40
25855;BME280;13680;49.936;11.344;2023-01-26T00:29:51;97206.09;;;1.26;74.07
25855;BME280;13680;49.936;11.344;2023-01-26T00:32:17;97195.59;;;1.19;73.10
25855;BME280;13680;49.936;11.344;2023-01-26T00:34:42;97195.25;;;1.16;73.72
25855;BME280;13680;49.936;11.344;2023-01-26T00:37:07;97190.59;;;0.99;73.92
25855;BME280;13680;49.936;11.344;2023-01-26T00:39:33;97186.56;;;0.96;74.27
25855;BME280;13680;49.936;11.344;2023-01-26T00:41:58;97179.56;;;1.02;74.39
25855;BME280;13680;49.936;11.344;2023-01-26T00:44:39;97178.84;;;0.95;74.60
25855;BME280;13680;49.936;11.344;2023-01-26T00:47:06;97172.06;;;0.99;74.25
25855;BME280;13680;49.936;11.344;2023-01-26T00:49:32;97162.38;;;0.93;74.49
25855;BME280;13680;49.936;11.344;2023-01-26T00:51:58;97159.97;;;1.03;74.37
25855;BME280;13680;49.936;11.344;2023-01-26T00:54:24;97159.84;;;0.98;74.70
25855;BME280;13680;49.936;11.344;2023-01-26T00:56:49;97154.00;;;0.96;74.74
25855;BME280;13680;49.936;11.344;2023-01-26T00:59:14;97154.19;;;0.94;74.55
25855;BME280;13680;49.936;11.344;2023-01-26T01:01:40;97156.75;;;1.01;74.99
25855;BME280;13680;49.936;11.344;2023-01-26T01:04:05;97156.41;;;0.97;74.38
25855;BME280;13680;49.936;11.344;2023-01-26T01:06:30;97153.22;;;1.07;74.17
25855;BME280;13680;49.936;11.344;2023-01-26T01:08:55;97149.19;;;1.05;74.07
25855;BME280;13680;49.936;11.344;2023-01-26T01:11:21;97156.28;;;1.04;74.48
25855;BME280;13680;49.936;11.344;2023-01-26T01:13:46;97147.69;;;1.09;74.31
25855;BME280;13680;49.936;11.344;2023-01-26T01:16:13;97152.84;;;1.16;74.41
25855;BME280;13680;49.936;11.344;2023-01-26T01:18:39;97149.06;;;1.11;74.49
25855;BME280;13680;49.936;11.344;2023-01-26T01:21:06;97147.22;;;1.12;74.72
25855;BME280;13680;49.936;11.344;2023-01-26T01:23:32;97145.69;;;1.04;74.77
25855;BME280;13680;49.936;11.344;2023-01-26T01:25:58;97152.50;;;1.00;74.05
25855;BME280;13680;49.936;11.344;2023-01-26T01:28:24;97147.31;;;1.05;73.99
25855;BME280;13680;49.936;11.344;2023-01-26T01:30:49;97153.09;;;1.02;74.04
25855;BME280;13680;49.936;11.344;2023-01-26T01:33:15;97157.69;;;1.07;74.29
25855;BME280;13680;49.936;11.344;2023-01-26T01:35:40;97159.88;;;1.10;74.00
25855;BME280;13680;49.936;11.344;2023-01-26T01:38:05;97158.03;;;1.10;74.30
25855;BME280;13680;49.936;11.344;2023-01-26T01:40:31;97157.91;;;1.05;74.28
25855;BME280;13680;49.936;11.344;2023-01-26T01:42:56;97161.22;;;1.01;74.53
25855;BME280;13680;49.936;11.344;2023-01-26T01:47:50;97157.91;;;1.05;74.32
25855;BME280;13680;49.936;11.344;2023-01-26T01:50:17;97160.31;;;1.07;74.49
25855;BME280;13680;49.936;11.344;2023-01-26T01:52:44;97157.13;;;1.05;74.94
25855;BME280;13680;49.936;11.344;2023-01-26T01:55:11;97154.13;;;1.13;74.14
25855;BME280;13680;49.936;11.344;2023-01-26T01:57:48;97154.00;;;1.20;74.49
25855;BME280;13680;49.936;11.344;2023-01-26T02:00:19;97150.88;;;1.11;74.40
25855;BME280;13680;49.936;11.344;2023-01-26T02:02:50;97139.50;;;1.10;74.11
25855;BME280;13680;49.936;11.344;2023-01-26T02:06:12;97137.19;;;1.02;74.51
25855;BME280;13680;49.936;11.344;2023-01-26T02:08:44;97139.56;;;0.92;74.58
25855;BME280;13680;49.936;11.344;2023-01-26T02:11:19;97139.56;;;0.80;75.38
25855;BME280;13680;49.936;11.344;2023-01-26T02:13:47;97135.78;;;0.88;75.65
25855;BME280;13680;49.936;11.344;2023-01-26T02:16:14;97129.34;;;0.95;75.12
25855;BME280;13680;49.936;11.344;2023-01-26T02:18:39;97133.25;;;0.93;74.91
25855;BME280;13680;49.936;11.344;2023-01-26T02:21:07;97129.91;;;0.86;74.76
25855;BME280;13680;49.936;11.344;2023-01-26T02:26:28;97122.28;;;0.65;75.78
25855;BME280;13680;49.936;11.344;2023-01-26T02:28:54;97115.34;;;0.64;75.70
25855;BME280;13680;49.936;11.344;2023-01-26T02:31:21;97113.97;;;0.62;75.57
25855;BME280;13680;49.936;11.344;2023-01-26T02:33:47;97107.53;;;0.70;75.65
25855;BME280;13680;49.936;11.344;2023-01-26T02:36:32;97115.16;;;0.78;75.78
25855;BME280;13680;49.936;11.344;2023-01-26T02:39:21;97112.53;;;0.90;75.11
25855;BME280;13680;49.936;11.344;2023-01-26T02:41:49;97098.16;;;0.97;75.13
25855;BME280;13680;49.936;11.344;2023-01-26T02:44:35;97102.19;;;1.00;74.47
25855;BME280;13680;49.936;11.344;2023-01-26T02:47:10;97092.84;;;0.97;74.86
25855;BME280;13680;49.936;11.344;2023-01-26T02:49:35;97093.75;;;1.03;74.47
25855;BME280;13680;49.936;11.344;2023-01-26T02:52:17;97097.47;;;1.02;74.80
25855;BME280;13680;49.936;11.344;2023-01-26T02:54:42;97089.41;;;1.09;74.79
25855;BME280;13680;49.936;11.344;2023-01-26T02:57:26;97079.84;;;1.08;74.84
25855;BME280;13680;49.936;11.344;2023-01-26T02:59:52;97080.53;;;1.03;74.26
25855;BME280;13680;49.936;11.344;2023-01-26T03:02:18;97084.78;;;1.16;74.47
25855;BME280;13680;49.936;11.344;2023-01-26T03:04:43;97080.88;;;1.19;74.07
25855;BME280;13680;49.936;11.344;2023-01-26T03:07:08;97068.56;;;1.12;74.28
25855;BME280;13680;49.936;11.344;2023-01-26T03:09:34;97076.03;;;1.16;73.98
25855;BME280;13680;49.936;11.344;2023-01-26T03:11:59;97071.19;;;1.01;73.68
25855;BME280;13680;49.936;11.344;2023-01-26T03:14:25;97074.56;;;0.96;73.91
25855;BME280;13680;49.936;11.344;2023-01-26T03:16:50;97065.00;;;0.83;74.98
25855;BME280;13680;49.936;11.344;2023-01-26T03:19:15;97060.72;;;0.82;74.23
25855;BME280;13680;49.936;11.344;2023-01-26T03:22:00;97065.78;;;0.72;74.91
25855;BME280;13680;49.936;11.344;2023-01-26T03:24:44;97064.41;;;0.69;74.59
25855;BME280;13680;49.936;11.344;2023-01-26T03:27:41;97065.66;;;0.67;75.14
25855;BME280;13680;49.936;11.344;2023-01-26T03:30:07;97071.16;;;0.65;75.41
25855;BME280;13680;49.936;11.344;2023-01-26T03:32:33;97061.84;;;0.62;75.25
25855;BME280;13680;49.936;11.344;2023-01-26T03:34:58;97061.81;;;0.51;75.33
25855;BME280;13680;49.936;11.344;2023-01-26T03:37:24;97069.88;;;0.56;76.23
25855;BME280;13680;49.936;11.344;2023-01-26T03:39:49;97068.72;;;0.52;76.04
25855;BME280;13680;49.936;11.344;2023-01-26T03:42:34;97064.34;;;0.45;76.15
25855;BME280;13680;49.936;11.344;2023-01-26T03:45:18;97062.72;;;0.44;75.36
25855;BME280;13680;49.936;11.344;2023-01-26T03:48:07;97068.00;;;0.32;76.37
25855;BME280;13680;49.936;11.344;2023-01-26T03:50:52;97062.28;;;0.47;76.14
25855;BME280;13680;49.936;11.344;2023-01-26T03:53:36;97049.88;;;0.60;76.03
25855;BME280;13680;49.936;11.344;2023-01-26T03:56:20;97056.22;;;0.59;75.61
25855;BME280;13680;49.936;11.344;2023-01-26T03:59:01;97057.91;;;0.53;75.73
25855;BME280;13680;49.936;11.344;2023-01-26T04:01:33;97059.06;;;0.45;76.17
25855;BME280;13680;49.936;11.344;2023-01-26T04:03:58;97048.72;;;0.56;76.25
25855;BME280;13680;49.936;11.344;2023-01-26T04:06:47;97046.91;;;0.68;75.42
25855;BME280;13680;49.936;11.344;2023-01-26T04:09:31;97051.38;;;0.68;76.29
25855;BME280;13680;49.936;11.344;2023-01-26T04:11:57;97048.88;;;0.73;75.98
25855;BME280;13680;49.936;11.344;2023-01-26T04:14:22;97054.84;;;0.80;75.92
25855;BME280;13680;49.936;11.344;2023-01-26T04:17:06;97051.41;;;0.79;75.28
25855;BME280;13680;49.936;11.344;2023-01-26T04:19:50;97051.53;;;0.85;74.78
25855;BME280;13680;49.936;11.344;2023-01-26T04:22:38;97049.00;;;0.90;74.31
25855;BME280;13680;49.936;11.344;2023-01-26T04:25:08;97049.06;;;0.71;75.17
25855;BME280;13680;49.936;11.344;2023-01-26T04:27:34;97043.00;;;0.82;74.02
25855;BME280;13680;49.936;11.344;2023-01-26T04:30:00;97048.53;;;0.81;74.32
25855;BME280;13680;49.936;11.344;2023-01-26T04:32:25;97046.56;;;0.88;74.32
25855;BME280;13680;49.936;11.344;2023-01-26T04:34:51;97051.28;;;0.74;75.25
25855;BME280;13680;49.936;11.344;2023-01-26T04:37:17;97041.84;;;0.78;75.06
25855;BME280;13680;49.936;11.344;2023-01-26T04:39:42;97038.72;;;0.70;74.63
25855;BME280;13680;49.936;11.344;2023-01-26T04:42:07;97042.75;;;0.72;74.71
25855;BME280;13680;49.936;11.344;2023-01-26T04:44:33;97039.66;;;0.75;74.53
25855;BME280;13680;49.936;11.344;2023-01-26T04:46:58;97040.47;;;0.64;74.46
25855;BME280;13680;49.936;11.344;2023-01-26T04:49:23;97034.69;;;0.67;74.76
25855;BME280;13680;49.936;11.344;2023-01-26T04:51:49;97039.78;;;0.80;74.98
25855;BME280;13680;49.936;11.344;2023-01-26T04:54:14;97032.41;;;0.82;74.54
25855;BME280;13680;49.936;11.344;2023-01-26T04:56:39;97030.09;;;0.86;74.33
25855;BME280;13680;49.936;11.344;2023-01-26T04:59:06;97037.00;;;0.87;74.94
25855;BME280;13680;49.936;11.344;2023-01-26T05:01:32;97033.00;;;0.85;74.66
25855;BME280;13680;49.936;11.344;2023-01-26T05:04:02;97041.16;;;0.95;74.16
25855;BME280;13680;49.936;11.344;2023-01-26T05:06:28;97037.47;;;0.96;74.68
25855;BME280;13680;49.936;11.344;2023-01-26T05:08:53;97031.59;;;0.94;73.97
25855;BME280;13680;49.936;11.344;2023-01-26T05:11:19;97034.34;;;0.99;74.44
25855;BME280;13680;49.936;11.344;2023-01-26T05:13:44;97035.03;;;0.94;74.47
25855;BME280;13680;49.936;11.344;2023-01-26T05:16:11;97041.97;;;0.95;74.28
25855;BME280;13680;49.936;11.344;2023-01-26T05:18:39;97050.03;;;0.89;74.14
25855;BME280;13680;49.936;11.344;2023-01-26T05:21:05;97045.28;;;0.79;74.62
25855;BME280;13680;49.936;11.344;2023-01-26T05:23:30;97046.00;;;0.74;74.77
25855;BME280;13680;49.936;11.344;2023-01-26T05:25:56;97049.44;;;0.87;74.92
25855;BME280;13680;49.936;11.344;2023-01-26T05:28:21;97053.94;;;0.86;74.55
25855;BME280;13680;49.936;11.344;2023-01-26T05:30:46;97050.47;;;0.74;74.23
25855;BME280;13680;49.936;11.344;2023-01-26T05:33:12;97053.47;;;0.89;73.81
25855;BME280;13680;49.936;11.344;2023-01-26T05:35:37;97040.00;;;0.91;74.15
25855;BME280;13680;49.936;11.344;2023-01-26T05:38:03;97046.53;;;0.64;74.75
25855;BME280;13680;49.936;11.344;2023-01-26T05:40:28;97050.25;;;0.87;74.55
25855;BME280;13680;49.936;11.344;2023-01-26T05:42:54;97048.41;;;0.88;74.68
25855;BME280;13680;49.936;11.344;2023-01-26T05:45:19;97047.84;;;0.86;73.73
25855;BME280;13680;49.936;11.344;2023-01-26T05:47:45;97045.09;;;0.80;74.08
25855;BME280;13680;49.936;11.344;2023-01-26T05:50:12;97052.78;;;0.82;74.75
25855;BME280;13680;49.936;11.344;2023-01-26T05:52:37;97047.13;;;0.78;74.99
25855;BME280;13680;49.936;11.344;2023-01-26T05:55:04;97041.38;;;0.70;74.48
25855;BME280;13680;49.936;11.344;2023-01-26T05:57:29;97046.91;;;0.68;74.84
25855;BME280;13680;49.936;11.344;2023-01-26T05:59:55;97042.03;;;0.65;74.92
25855;BME280;13680;49.936;11.344;2023-01-26T06:02:20;97036.56;;;0.78;74.59
25855;BME280;13680;49.936;11.344;2023-01-26T06:04:46;97041.38;;;0.81;74.62
25855;BME280;13680;49.936;11.344;2023-01-26T06:07:11;97045.19;;;0.86;74.40
25855;BME280;13680;49.936;11.344;2023-01-26T06:09:38;97052.44;;;1.02;74.69
25855;BME280;13680;49.936;11.344;2023-01-26T06:12:04;97052.00;;;0.93;73.56
25855;BME280;13680;49.936;11.344;2023-01-26T06:14:29;97049.00;;;0.90;74.45
25855;BME280;13680;49.936;11.344;2023-01-26T06:16:55;97049.44;;;0.87;74.44
25855;BME280;13680;49.936;11.344;2023-01-26T06:19:20;97059.69;;;0.83;74.88
25855;BME280;13680;49.936;11.344;2023-01-26T06:21:46;97060.97;;;0.80;74.36
25855;BME280;13680;49.936;11.344;2023-01-26T06:24:11;97059.78;;;0.76;74.54
25855;BME280;13680;49.936;11.344;2023-01-26T06:26:36;97058.31;;;0.80;74.26
25855;BME280;13680;49.936;11.344;2023-01-26T06:29:02;97056.09;;;0.77;74.96
25855;BME280;13680;49.936;11.344;2023-01-26T06:31:27;97052.78;;;0.82;74.45
25855;BME280;13680;49.936;11.344;2023-01-26T06:33:54;97052.19;;;0.80;74.63
25855;BME280;13680;49.936;11.344;2023-01-26T06:36:19;97055.19;;;0.84;74.70
25855;BME280;13680;49.936;11.344;2023-01-26T06:38:47;97051.16;;;0.81;74.96
25855;BME280;13680;49.936;11.344;2023-01-26T06:41:13;97048.03;;;0.84;75.16
25855;BME280;13680;49.936;11.344;2023-01-26T06:43:39;97050.50;;;0.86;74.35
25855;BME280;13680;49.936;11.344;2023-01-26T06:46:05;97049.56;;;0.80;75.03
25855;BME280;13680;49.936;11.344;2023-01-26T06:48:32;97038.84;;;0.87;74.80
25855;BME280;13680;49.936;11.344;2023-01-26T06:53:46;97037.00;;;0.87;75.20
25855;BME280;13680;49.936;11.344;2023-01-26T06:56:12;97037.25;;;0.86;74.99
25855;BME280;13680;49.936;11.344;2023-01-26T06:58:37;97047.25;;;0.95;74.94
25855;BME280;13680;49.936;11.344;2023-01-26T07:01:03;97049.22;;;1.00;74.70
25855;BME280;13680;49.936;11.344;2023-01-26T07:03:29;97045.53;;;1.01;74.67
25855;BME280;13680;49.936;11.344;2023-01-26T07:05:54;97043.13;;;1.00;74.24
25855;BME280;13680;49.936;11.344;2023-01-26T07:08:20;97041.16;;;0.95;74.64
25855;BME280;13680;49.936;11.344;2023-01-26T07:10:45;97038.88;;;0.98;75.13
25855;BME280;13680;49.936;11.344;2023-01-26T07:13:10;97049.44;;;0.98;74.47
25855;BME280;13680;49.936;11.344;2023-01-26T07:15:35;97055.22;;;1.07;74.30
25855;BME280;13680;49.936;11.344;2023-01-26T07:18:01;97047.81;;;1.09;74.53
25855;BME280;13680;49.936;11.344;2023-01-26T07:20:26;97041.50;;;1.10;74.28
25855;BME280;13680;49.936;11.344;2023-01-26T07:22:52;97054.84;;;1.16;73.90
25855;BME280;13680;49.936;11.344;2023-01-26T07:25:18;97048.75;;;0.91;75.20
25855;BME280;13680;49.936;11.344;2023-01-26T07:27:44;97047.84;;;0.97;75.01
25855;BME280;13680;49.936;11.344;2023-01-26T07:30:10;97047.84;;;0.97;75.23
25855;BME280;13680;49.936;11.344;2023-01-26T07:32:38;97046.91;;;1.04;75.10
25855;BME280;13680;49.936;11.344;2023-01-26T07:35:04;97038.84;;;1.10;74.55
25855;BME280;13680;49.936;11.344;2023-01-26T07:37:29;97041.63;;;1.16;74.69
25855;BME280;13680;49.936;11.344;2023-01-26T07:39:55;97037.72;;;1.06;74.33
25855;BME280;13680;49.936;11.344;2023-01-26T07:42:20;97029.41;;;1.14;74.25
25855;BME280;13680;49.936;11.344;2023-01-26T07:44:46;97049.56;;;1.16;74.78
25855;BME280;13680;49.936;11.344;2023-01-26T07:47:11;97048.97;;;1.25;74.44
25855;BME280;13680;49.936;11.344;2023-01-26T07:49:36;97042.06;;;1.24;74.45
25855;BME280;13680;49.936;11.344;2023-01-26T07:52:02;97043.34;;;1.22;74.49
25855;BME280;13680;49.936;11.344;2023-01-26T07:54:28;97045.88;;;1.17;74.46
25855;BME280;13680;49.936;11.344;2023-01-26T07:56:53;97049.22;;;1.24;74.30
25855;BME280;13680;49.936;11.344;2023-01-26T07:59:20;97044.38;;;1.21;74.62
25855;BME280;13680;49.936;11.344;2023-01-26T08:01:47;97049.22;;;1.24;74.50
25855;BME280;13680;49.936;11.344;2023-01-26T08:04:13;97048.75;;;1.27;73.80
25855;BME280;13680;49.936;11.344;2023-01-26T08:06:38;97048.41;;;1.23;74.44
25855;BME280;13680;49.936;11.344;2023-01-26T08:09:03;97042.97;;;1.30;74.50
25855;BME280;13680;49.936;11.344;2023-01-26T08:11:29;97054.94;;;1.33;74.45
25855;BME280;13680;49.936;11.344;2023-01-26T08:13:54;97047.81;;;1.33;74.47
25855;BME280;13680;49.936;11.344;2023-01-26T08:16:20;97047.94;;;1.26;74.71
25855;BME280;13680;49.936;11.344;2023-01-26T08:18:45;97049.31;;;1.17;74.21
25855;BME280;13680;49.936;11.344;2023-01-26T08:21:13;97045.75;;;1.23;74.91
25855;BME280;13680;49.936;11.344;2023-01-26T08:23:39;97049.78;;;1.26;74.53
25855;BME280;13680;49.936;11.344;2023-01-26T08:26:06;97052.44;;;1.26;74.11
25855;BME280;13680;49.936;11.344;2023-01-26T08:28:32;97053.13;;;1.21;74.18
25855;BME280;13680;49.936;11.344;2023-01-26T08:31:08;97047.59;;;1.23;74.84
25855;BME280;13680;49.936;11.344;2023-01-26T08:33:39;97048.88;;;1.20;74.38
25855;BME280;13680;49.936;11.344;2023-01-26T08:36:07;97043.09;;;1.23;74.21
25855;BME280;13680;49.936;11.344;2023-01-26T08:38:33;97035.16;;;1.23;74.54
25855;BME280;13680;49.936;11.344;2023-01-26T08:41:00;97040.91;;;1.32;75.13
25855;BME280;13680;49.936;11.344;2023-01-26T08:43:26;97039.53;;;1.29;74.75
25855;BME280;13680;49.936;11.344;2023-01-26T08:45:51;97030.66;;;1.36;73.62
25855;BME280;13680;49.936;11.344;2023-01-26T08:48:17;97026.16;;;1.36;74.65
25855;BME280;13680;49.936;11.344;2023-01-26T08:50:43;97024.53;;;1.35;73.87
25855;BME280;13680;49.936;11.344;2023-01-26T08:53:08;97023.59;;;1.41;73.75
25855;BME280;13680;49.936;11.344;2023-01-26T08:55:34;97024.63;;;1.52;73.74
25855;BME280;13680;49.936;11.344;2023-01-26T08:57:59;97031.44;;;1.48;72.65
25855;BME280;13680;49.936;11.344;2023-01-26T09:00:25;97035.03;;;1.30;72.84
25855;BME280;13680;49.936;11.344;2023-01-26T09:02:58;97035.06;;;1.06;73.60
25855;BME280;13680;49.936;11.344;2023-01-26T09:05:24;97029.97;;;1.17;72.91
25855;BME280;13680;49.936;11.344;2023-01-26T09:07:49;97038.38;;;1.25;72.30
25855;BME280;13680;49.936;11.344;2023-01-26T09:10:15;97047.38;;;1.12;72.85
25855;BME280;13680;49.936;11.344;2023-01-26T09:12:40;97056.44;;;1.28;72.92
25855;BME280;13680;49.936;11.344;2023-01-26T09:15:06;97056.09;;;1.25;72.69
25855;BME280;13680;49.936;11.344;2023-01-26T09:17:32;97052.88;;;1.35;72.06
25855;BME280;13680;49.936;11.344;2023-01-26T09:19:57;97049.22;;;1.24;73.04
25855;BME280;13680;49.936;11.344;2023-01-26T09:22:22;97044.97;;;1.23;73.12
25855;BME280;13680;49.936;11.344;2023-01-26T09:24:48;97048.63;;;1.22;73.51
25855;BME280;13680;49.936;11.344;2023-01-26T09:27:13;97049.88;;;1.31;72.84
25855;BME280;13680;49.936;11.344;2023-01-26T09:29:38;97055.06;;;1.38;73.18
25855;BME280;13680;49.936;11.344;2023-01-26T09:32:04;97053.34;;;1.43;72.28
25855;BME280;13680;49.936;11.344;2023-01-26T09:34:29;97059.81;;;1.36;72.58
25855;BME280;13680;49.936;11.344;2023-01-26T09:36:54;97045.00;;;1.52;72.40
25855;BME280;13680;49.936;11.344;2023-01-26T09:39:20;97048.81;;;1.56;71.90
25855;BME280;13680;49.936;11.344;2023-01-26T09:41:57;97039.41;;;1.36;71.98
25855;BME280;13680;49.936;11.344;2023-01-26T09:44:30;97037.22;;;1.33;72.40
25855;BME280;13680;49.936;11.344;2023-01-26T09:49:47;97042.84;;;1.49;71.79
25855;BME280;13680;49.936;11.344;2023-01-26T09:52:15;97045.00;;;1.52;71.13
25855;BME280;13680;49.936;11.344;2023-01-26T09:54:54;97052.22;;;1.68;71.16
25855;BME280;13680;49.936;11.344;2023-01-26T09:57:31;97052.03;;;1.70;70.40
25855;BME280;13680;49.936;11.344;2023-01-26T10:00:14;97047.03;;;1.73;70.42
25855;BME280;13680;49.936;11.344;2023-01-26T10:08:34;97047.72;;;1.80;69.88
25855;BME280;13680;49.936;11.344;2023-01-26T10:11:04;97040.78;;;1.79;70.25
25855;BME280;13680;49.936;11.344;2023-01-26T10:13:34;97033.88;;;1.78;70.08
25855;BME280;13680;49.936;11.344;2023-01-26T10:16:04;97028.56;;;1.90;69.54
25855;BME280;13680;49.936;11.344;2023-01-26T10:18:38;97024.44;;;1.83;69.58
25855;BME280;13680;49.936;11.344;2023-01-26T10:21:06;97019.13;;;1.83;69.98
25855;BME280;13680;49.936;11.344;2023-01-26T10:23:34;97022.81;;;1.82;69.88
25855;BME280;13680;49.936;11.344;2023-01-26T10:26:12;97026.25;;;1.82;69.84
25855;BME280;13680;49.936;11.344;2023-01-26T10:28:40;97021.22;;;1.28;71.56
25855;BME280;13680;49.936;11.344;2023-01-26T10:31:21;97019.03;;;1.25;71.93
25855;BME280;13680;49.936;11.344;2023-01-26T10:34:14;97018.66;;;1.45;70.78
25855;BME280;13680;49.936;11.344;2023-01-26T10:36:42;97027.75;;;1.37;70.69
25855;BME280;13680;49.936;11.344;2023-01-26T10:39:10;97027.75;;;1.37;71.39
25855;BME280;13680;49.936;11.344;2023-01-26T10:41:36;97019.38;;;1.28;71.24
25855;BME280;13680;49.936;11.344;2023-01-26T10:44:18;97018.84;;;1.55;70.27
25855;BME280;13680;49.936;11.344;2023-01-26T10:46:45;97021.84;;;1.59;69.86
25855;BME280;13680;49.936;11.344;2023-01-26T10:51:38;97019.22;;;1.35;69.19
25855;BME280;13680;49.936;11.344;2023-01-26T10:56:53;97018.84;;;1.55;68.82
25855;BME280;13680;49.936;11.344;2023-01-26T10:59:38;97007.44;;;1.55;68.38
25855;BME280;13680;49.936;11.344;2023-01-26T11:04:37;97006.31;;;1.51;69.78
25855;BME280;13680;49.936;11.344;2023-01-26T11:07:26;96994.66;;;1.52;68.97
25855;BME280;13680;49.936;11.344;2023-01-26T11:09:52;96989.03;;;1.77;68.84
25855;BME280;13680;49.936;11.344;2023-01-26T11:12:20;96996.56;;;1.97;68.77
25855;BME280;13680;49.936;11.344;2023-01-26T11:15:03;96989.75;;;2.01;69.04
25855;BME280;13680;49.936;11.344;2023-01-26T11:17:36;96990.25;;;2.15;68.57
25855;BME280;13680;49.936;11.344;2023-01-26T11:22:50;96988.19;;;2.34;66.54
25855;BME280;13680;49.936;11.344;2023-01-26T11:25:40;96981.91;;;2.40;66.74
25855;BME280;13680;49.936;11.344;2023-01-26T11:28:31;96982.56;;;2.48;66.56
25855;BME280;13680;49.936;11.344;2023-01-26T11:31:12;96982.00;;;2.45;66.61
25855;BME280;13680;49.936;11.344;2023-01-26T11:34:23;96980.22;;;2.34;66.50
25855;BME280;13680;49.936;11.344;2023-01-26T11:36:50;96973.13;;;1.77;68.88
25855;BME280;13680;49.936;11.344;2023-01-26T11:52:11;96968.06;;;2.21;67.73
25855;BME280;13680;49.936;11.344;2023-01-26T11:57:42;96954.41;;;1.84;68.67
25855;BME280;13680;49.936;11.344;2023-01-26T12:00:37;96945.69;;;1.83;69.09
25855;BME280;13680;49.936;11.344;2023-01-26T12:03:14;96938.22;;;1.97;69.55
25855;BME280;13680;49.936;11.344;2023-01-26T12:05:45;96944.41;;;2.03;69.13
25855;BME280;13680;49.936;11.344;2023-01-26T12:11:08;96944.78;;;2.23;69.45
25855;BME280;13680;49.936;11.344;2023-01-26T12:14:11;96944.56;;;2.13;69.21
25855;BME280;13680;49.936;11.344;2023-01-26T12:19:31;96942.19;;;2.45;67.31
25855;BME280;13680;49.936;11.344;2023-01-26T12:22:21;96939.47;;;2.40;67.12
25855;BME280;13680;49.936;11.344;2023-01-26T12:24:59;96936.81;;;2.40;67.37
25855;BME280;13680;49.936;11.344;2023-01-26T12:27:32;96928.28;;;2.21;68.11
25855;BME280;13680;49.936;11.344;2023-01-26T12:30:22;96926.50;;;2.27;67.25
25855;BME280;13680;49.936;11.344;2023-01-26T12:32:48;96930.13;;;2.21;67.66
25855;BME280;13680;49.936;11.344;2023-01-26T12:35:26;96927.09;;;2.12;68.01
25855;BME280;13680;49.936;11.344;2023-01-26T12:38:02;96915.66;;;2.11;68.28
25855;BME280;13680;49.936;11.344;2023-01-26T12:40:35;96915.00;;;2.21;67.71
25855;BME280;13680;49.936;11.344;2023-01-26T12:43:21;96909.22;;;2.07;68.73
25855;BME280;13680;49.936;11.344;2023-01-26T12:45:55;96907.44;;;1.96;68.99
25855;BME280;13680;49.936;11.344;2023-01-26T12:48:30;96903.25;;;2.00;69.14
25855;BME280;13680;49.936;11.344;2023-01-26T12:51:22;96907.69;;;2.11;67.98
25855;BME280;13680;49.936;11.344;2023-01-26T12:56:40;96906.50;;;2.02;68.16
25855;BME280;13680;49.936;11.344;2023-01-26T12:59:36;96901.75;;;2.04;68.49
25855;BME280;13680;49.936;11.344;2023-01-26T13:04:47;96899.59;;;2.18;68.20
25855;BME280;13680;49.936;11.344;2023-01-26T13:07:43;96897.47;;;1.86;68.42
25855;BME280;13680;49.936;11.344;2023-01-26T13:12:58;96888.97;;;1.84;68.89
25855;BME280;13680;49.936;11.344;2023-01-26T13:15:29;96891.03;;;1.65;69.06
25855;BME280;13680;49.936;11.344;2023-01-26T13:17:57;96885.97;;;1.80;68.75
25855;BME280;13680;49.936;11.344;2023-01-26T13:20:42;96890.84;;;1.72;68.83
25855;BME280;13680;49.936;11.344;2023-01-26T13:26:15;96890.03;;;1.54;69.78
25855;BME280;13680;49.936;11.344;2023-01-26T13:28:42;96888.75;;;1.57;69.35
25855;BME280;13680;49.936;11.344;2023-01-26T13:31:09;96884.78;;;1.71;69.27
25855;BME280;13680;49.936;11.344;2023-01-26T13:33:35;96879.47;;;1.71;68.67
25855;BME280;13680;49.936;11.344;2023-01-26T13:36:12;96889.13;;;1.20;70.91
25855;BME280;13680;49.936;11.344;2023-01-26T13:38:44;96893.16;;;1.51;70.27
25855;BME280;13680;49.936;11.344;2023-01-26T13:41:18;96889.13;;;1.20;71.32
25855;BME280;13680;49.936;11.344;2023-01-26T13:43:50;96884.25;;;1.57;70.56
25855;BME280;13680;49.936;11.344;2023-01-26T13:46:27;96886.84;;;1.69;69.84
25855;BME280;13680;49.936;11.344;2023-01-26T13:48:55;96890.69;;;1.61;69.96
25855;BME280;13680;49.936;11.344;2023-01-26T13:51:26;96888.09;;;1.50;70.81
25855;BME280;13680;49.936;11.344;2023-01-26T13:53:56;96892.91;;;1.53;70.98
25855;BME280;13680;49.936;11.344;2023-01-26T14:01:45;96888.00;;;1.90;70.07
25855;BME280;13680;49.936;11.344;2023-01-26T14:04:16;96890.25;;;1.99;69.79
25855;BME280;13680;49.936;11.344;2023-01-26T14:06:48;96890.00;;;2.00;69.79
25855;BME280;13680;49.936;11.344;2023-01-26T14:09:16;96892.63;;;1.66;70.49
25855;BME280;13680;49.936;11.344;2023-01-26T14:11:42;96898.47;;;1.68;71.08
25855;BME280;13680;49.936;11.344;2023-01-26T14:14:19;96891.44;;;1.91;70.52
25855;BME280;13680;49.936;11.344;2023-01-26T14:16:47;96885.66;;;1.77;70.53
25855;BME280;13680;49.936;11.344;2023-01-26T14:19:15;96883.72;;;1.72;70.27